Time;durP1;ratioP1;P1;durP2;ratioP2;P2;SDS_P1;SDS_P2;PMS_P1;PMS_P2;Temp;Humidity;BMP_temperature;BMP_pressure;BME280_temperature;BME280_humidity;BME280_pressure;Samples;Min_cycle;Max_cycle;Signal;HPM_P1;HPM_P2
2022/03/08 00:00:36;;;;;;;18.02;10.15;;;;;;;2.89;79.55;99576.25;3141662;28;20479;-77
2022/03/08 00:02:10;;;;;;;15.15;8.85;;;;;;;3.06;79.62;99606.84;3135151;28;20155;-76
2022/03/08 00:03:45;;;;;;;15.57;9.00;;;;;;;3.08;79.70;99602.53;3141276;28;20048;-77
2022/03/08 00:05:20;;;;;;;14.82;8.82;;;;;;;3.09;79.68;99607.63;3139288;28;20063;-76
2022/03/08 00:06:53;;;;;;;14.45;8.77;;;;;;;3.12;79.61;99606.75;3136579;28;20078;-76
2022/03/08 00:08:24;;;;;;;14.35;8.77;;;;;;;2.76;79.56;99554.22;3144317;28;20048;-78
2022/03/08 00:09:56;;;;;;;15.05;8.07;;;;;;;2.86;79.51;99560.88;3141004;28;20060;-78
2022/03/08 00:11:29;;;;;;;14.30;8.93;;;;;;;2.63;79.64;99523.59;3140374;28;20048;-78
2022/03/08 00:13:01;;;;;;;14.23;8.25;;;;;;;2.55;79.47;99509.16;3142202;28;20142;-78
2022/03/08 00:14:35;;;;;;;14.68;8.50;;;;;;;2.55;79.53;99515.16;3135534;28;20404;-78
2022/03/08 00:16:08;;;;;;;15.30;8.45;;;;;;;3.12;79.66;99602.44;3148043;28;20455;-78
2022/03/08 00:17:42;;;;;;;14.13;8.40;;;;;;;2.27;79.39;99478.78;3137110;28;20360;-78
2022/03/08 00:19:17;;;;;;;13.07;7.80;;;;;;;3.06;79.62;99605.13;3141589;28;20226;-77
2022/03/08 00:20:49;;;;;;;13.50;7.97;;;;;;;2.89;79.58;99574.53;3144672;28;20591;-77
2022/03/08 00:22:22;;;;;;;13.87;8.10;;;;;;;3.00;79.69;99594.09;3137562;28;20356;-76
2022/03/08 00:23:55;;;;;;;13.57;7.93;;;;;;;2.98;79.70;99599.25;3145170;28;20313;-76
2022/03/08 00:25:28;;;;;;;;;;;;;;;2.83;79.83;99600.38;3142069;28;20105;-76
2022/03/08 00:27:00;;;;;;;13.15;7.95;;;;;;;2.91;80.01;99601.09;3138094;28;20023;-76
2022/03/08 00:28:32;;;;;;;12.68;7.35;;;;;;;2.49;80.00;99523.81;3146366;28;20048;-76
2022/03/08 00:30:05;;;;;;;12.60;7.53;;;;;;;2.78;79.71;99558.47;3137177;28;20322;-76
2022/03/08 00:31:38;;;;;;;13.27;7.90;;;;;;;2.80;79.82;99561.84;3141129;28;20052;-75
2022/03/08 00:34:08;;;;;;;12.20;7.30;;;;;;;2.99;79.70;99593.25;3142248;28;21100;-78
2022/03/08 00:38:06;;;;;;;13.02;8.05;;;;;;;2.88;80.21;99597.72;3079474;28;20060;-76
2022/03/08 00:39:38;;;;;;;;;;;;;;;2.76;80.08;99601.34;3120374;28;20071;-76
2022/03/08 00:41:10;;;;;;;11.25;7.30;;;;;;;2.85;80.36;99595.22;3145175;28;19928;-76
2022/03/08 00:42:42;;;;;;;12.60;8.10;;;;;;;2.93;80.16;99594.22;3138180;28;20162;-76
2022/03/08 00:44:15;;;;;;;12.25;8.00;;;;;;;2.39;79.90;99496.56;3147394;28;20084;-76
2022/03/08 00:45:47;;;;;;;11.32;6.55;;;;;;;2.97;80.08;99590.69;3143038;28;20056;-76
2022/03/08 00:47:19;;;;;;;11.35;6.93;;;;;;;2.99;79.78;99598.41;3140644;28;20391;-74
2022/03/08 00:48:52;;;;;;;13.15;7.13;;;;;;;2.95;79.86;99594.16;3146006;28;20548;-75
2022/03/08 00:50:27;;;;;;;12.93;6.75;;;;;;;2.42;79.92;99509.34;3140097;28;20051;-74
2022/03/08 00:51:59;;;;;;;12.18;7.30;;;;;;;2.84;79.91;99580.63;3144100;28;20079;-75
2022/03/08 00:53:33;;;;;;;10.88;6.75;;;;;;;2.31;79.98;99503.56;3140392;28;20518;-74
2022/03/08 00:55:08;;;;;;;10.85;6.20;;;;;;;2.84;79.99;99578.94;3138461;28;20596;-75
2022/03/08 00:56:40;;;;;;;15.55;6.30;;;;;;;2.73;80.13;99570.56;3145638;28;20127;-74
2022/03/08 00:58:13;;;;;;;14.35;6.95;;;;;;;2.22;80.17;99486.56;3144915;28;20715;-73
2022/03/08 00:59:44;;;;;;;11.07;6.57;;;;;;;2.04;80.21;99450.88;3143911;28;20153;-74
2022/03/08 01:01:16;;;;;;;11.90;7.10;;;;;;;2.28;80.22;99490.78;3143118;28;20044;-75
2022/03/08 01:02:49;;;;;;;13.20;7.38;;;;;;;2.14;80.25;99460.16;3136461;28;20064;-74
2022/03/08 01:04:21;;;;;;;13.10;7.95;;;;;;;2.58;80.45;99540.81;3145130;28;20072;-74
2022/03/08 01:05:53;;;;;;;9.63;6.28;;;;;;;2.60;80.47;99574.19;3138789;28;20065;-76
2022/03/08 01:07:25;;;;;;;9.07;6.33;;;;;;;1.68;80.69;99427.47;3140513;28;20216;-75
2022/03/08 01:08:59;;;;;;;13.52;8.00;;;;;;;2.55;80.68;99565.72;3143912;28;20051;-76
2022/03/08 01:10:32;;;;;;;12.10;7.70;;;;;;;2.56;80.79;99577.69;3137423;28;20143;-76
2022/03/08 01:12:05;;;;;;;11.50;7.93;;;;;;;2.57;80.80;99575.06;3143044;28;20561;-76
2022/03/08 01:13:37;;;;;;;11.77;7.88;;;;;;;2.21;80.90;99509.72;3143788;28;20091;-76
2022/03/08 01:15:11;;;;;;;11.20;7.35;;;;;;;2.27;80.95;99512.19;3137637;28;20139;-76
2022/03/08 01:16:42;;;;;;;;;;;;;;;2.45;80.95;99568.41;3148058;28;20048;-76
2022/03/08 01:18:15;;;;;;;14.40;7.95;;;;;;;1.75;81.28;99443.66;3136671;28;19977;-76
2022/03/08 01:19:47;;;;;;;13.05;8.20;;;;;;;2.34;81.22;99528.34;3140955;28;20082;-75
2022/03/08 01:21:19;;;;;;;10.82;7.05;;;;;;;2.54;81.10;99558.88;3147794;28;20334;-75
2022/03/08 01:22:51;;;;;;;13.95;7.28;;;;;;;2.19;80.91;99498.59;3148257;28;20150;-75
2022/03/08 01:24:25;;;;;;;12.18;7.32;;;;;;;2.15;80.93;99490.09;3143682;28;20087;-76
2022/03/08 01:25:57;;;;;;;;;;;;;;;2.54;81.02;99580.28;3149430;28;20044;-76
2022/03/08 01:27:28;;;;;;;12.07;7.63;;;;;;;2.17;81.32;99506.34;3147142;28;19924;-76
2022/03/08 01:29:12;;;;;;;11.43;6.85;;;;;;;2.19;81.06;99508.88;3143981;28;20052;-77
2022/03/08 01:30:46;;;;;;;12.23;7.57;;;;;;;2.42;81.13;99545.34;3138381;28;20056;-77
2022/03/08 01:32:17;;;;;;;12.18;7.85;;;;;;;2.38;81.11;99528.28;3146800;28;20043;-77
2022/03/08 01:33:54;;;;;;;12.57;7.82;;;;;;;2.31;81.12;99521.56;3141167;28;20143;-77
2022/03/08 01:35:31;;;;;;;13.43;8.30;;;;;;;2.37;80.91;99516.31;3138227;28;20059;-77
2022/03/08 01:37:18;;;;;;;14.05;8.50;;;;;;;2.24;80.98;99497.66;3145476;28;20051;-77
2022/03/08 01:38:49;;;;;;;12.48;7.35;;;;;;;2.78;81.00;99581.63;3136824;28;20895;-75
2022/03/08 01:40:51;;;;;;;12.23;7.40;;;;;;;2.80;80.84;99581.56;3142229;28;20098;-77
2022/03/08 01:42:41;;;;;;;;;;;;;;;;;;;;;
2022/03/08 01:44:18;;;;;;;12.00;7.15;;;;;;;2.01;80.99;99458.63;3140689;28;20110;-76
2022/03/08 01:45:50;;;;;;;12.70;6.82;;;;;;;2.80;81.07;99592.69;3144800;28;20048;-76
2022/03/08 01:47:23;;;;;;;14.23;8.05;;;;;;;2.27;80.92;99507.03;3146508;28;20499;-75
2022/03/08 01:48:55;;;;;;;15.15;8.68;;;;;;;2.81;80.96;99588.41;3145820;28;20513;-76
2022/03/08 01:50:28;;;;;;;15.10;8.65;;;;;;;2.25;80.92;99493.38;3138920;28;20048;-76
2022/03/08 01:52:00;;;;;;;18.70;8.80;;;;;;;2.22;80.80;99485.72;3142414;28;20674;-76
2022/03/08 01:53:33;;;;;;;16.35;8.20;;;;;;;2.84;80.95;99578.06;3144217;28;20807;-78
2022/03/08 01:55:07;;;;;;;15.45;8.50;;;;;;;2.85;80.97;99577.22;3136548;28;20059;-75
2022/03/08 01:56:39;;;;;;;;;;;;;;;2.68;81.00;99583.47;3145038;28;20544;-76
2022/03/08 01:58:14;;;;;;;17.30;8.18;;;;;;;2.78;81.46;99591.03;3139012;28;20384;-76
2022/03/08 01:59:46;;;;;;;15.00;9.32;;;;;;;2.76;81.19;99579.94;3137659;28;20063;-76
2022/03/08 02:01:18;;;;;;;18.73;10.20;;;;;;;2.59;80.96;99546.78;3143088;28;20052;-75
2022/03/08 02:02:51;;;;;;;23.65;10.48;;;;;;;2.76;81.03;99570.50;3137487;28;20902;-77
2022/03/08 02:04:24;;;;;;;34.53;13.13;;;;;;;2.88;80.99;99585.72;3141211;28;20062;-77
2022/03/08 02:06:01;;;;;;;27.23;11.30;;;;;;;2.37;81.07;99500.88;3142076;28;20053;-77
2022/03/08 02:10:36;;;;;;;26.38;12.45;;;;;;;2.77;81.30;99564.47;3098061;28;20091;-77
2022/03/08 02:12:10;;;;;;;22.25;11.43;;;;;;;2.74;81.26;99572.25;3089723;28;20667;-77
2022/03/08 02:13:44;;;;;;;24.67;12.65;;;;;;;2.17;81.27;99466.97;3096823;28;20050;-77
2022/03/08 02:15:18;;;;;;;21.70;12.02;;;;;;;2.53;81.11;99532.31;3086729;28;20404;-77
2022/03/08 02:16:50;;;;;;;25.90;12.18;;;;;;;2.76;81.04;99575.63;3130891;28;20083;-77
2022/03/08 02:18:23;;;;;;;23.55;12.38;;;;;;;2.74;81.16;99564.53;3141693;28;20054;-76
2022/03/08 02:19:56;;;;;;;24.77;12.15;;;;;;;2.60;81.07;99549.31;3138511;28;20493;-77
2022/03/08 02:21:34;;;;;;;22.23;12.07;;;;;;;2.49;81.13;99530.69;3144108;28;20052;-78
2022/03/08 02:23:07;;;;;;;23.48;11.95;;;;;;;2.66;81.27;99545.81;3139229;28;20139;-77
2022/03/08 02:24:39;;;;;;;19.55;10.85;;;;;;;3.01;81.06;99598.34;3143217;28;20048;-78
2022/03/08 02:26:12;;;;;;;17.45;10.93;;;;;;;3.05;81.32;99602.59;3141112;28;20335;-77
2022/03/08 02:27:51;;;;;;;17.45;10.10;;;;;;;3.03;81.29;99597.47;3146121;28;20172;-78
2022/03/08 02:29:23;;;;;;;19.35;11.05;;;;;;;2.99;81.33;99588.09;3146030;28;20524;-77
2022/03/08 02:30:55;;;;;;;18.92;11.85;;;;;;;2.94;81.20;99595.88;3144426;28;20056;-77
2022/03/08 02:32:27;;;;;;;21.75;12.43;;;;;;;2.85;80.96;99582.34;3142733;28;20052;-77
2022/03/08 02:33:59;;;;;;;27.85;13.02;;;;;;;2.77;81.14;99568.78;3146612;28;20080;-77
2022/03/08 02:35:33;;;;;;;23.42;13.57;;;;;;;2.49;81.08;99526.38;3143920;28;20101;-76
2022/03/08 02:37:11;;;;;;;23.33;13.88;;;;;;;2.54;80.98;99538.31;3141026;28;20537;-77
2022/03/08 02:38:44;;;;;;;22.35;13.52;;;;;;;2.26;81.25;99501.06;3139497;28;20146;-77
2022/03/08 02:40:18;;;;;;;23.73;14.05;;;;;;;2.96;81.39;99604.44;3138463;28;20185;-76
2022/03/08 02:41:50;;;;;;;29.52;14.68;;;;;;;2.48;81.32;99521.25;3142932;28;20665;-77
2022/03/08 02:43:23;;;;;;;23.08;13.55;;;;;;;2.50;81.38;99515.22;3135762;28;20104;-77
2022/03/08 02:44:55;;;;;;;26.70;13.95;;;;;;;2.80;81.21;99550.72;3143643;28;20129;-78
2022/03/08 02:46:37;;;;;;;;;;;;;;;;;;;;;
2022/03/08 02:48:31;;;;;;;27.70;14.73;;;;;;;3.06;81.10;99592.25;3138003;28;20072;-77
2022/03/08 02:50:19;;;;;;;23.70;13.18;;;;;;;2.74;80.95;99536.25;3143239;28;20569;-77
2022/03/08 02:51:51;;;;;;;26.63;13.93;;;;;;;2.94;81.20;99574.47;3140261;28;20139;-77
2022/03/08 02:53:28;;;;;;;27.33;13.77;;;;;;;3.08;81.15;99581.94;3144549;28;20062;-77
2022/03/08 02:55:06;;;;;;;28.90;14.35;;;;;;;2.96;80.97;99562.44;3136199;28;20052;-77
2022/03/08 02:56:40;;;;;;;25.85;14.23;;;;;;;3.09;80.98;99583.63;3138522;28;20052;-78
2022/03/08 03:01:17;;;;;;;23.52;13.43;;;;;;;2.94;81.10;99584.75;3118566;28;20283;-77
2022/03/08 03:02:50;;;;;;;26.50;13.60;;;;;;;2.42;81.11;99488.78;3140873;28;20109;-76
2022/03/08 03:04:22;;;;;;;23.27;13.52;;;;;;;2.99;81.18;99585.53;3145523;28;20048;-75
2022/03/08 03:05:54;;;;;;;24.38;13.77;;;;;;;3.03;80.93;99589.75;3142217;28;20847;-76
2022/03/08 03:07:26;;;;;;;24.75;13.57;;;;;;;3.03;80.86;99592.31;3138446;28;20059;-76
2022/03/08 03:08:59;;;;;;;30.38;14.27;;;;;;;2.37;80.73;99479.50;3140771;28;20162;-76
2022/03/08 03:10:31;;;;;;;25.50;13.57;;;;;;;3.02;80.85;99590.63;3146854;28;20071;-76
2022/03/08 03:12:04;;;;;;;29.35;14.93;;;;;;;2.46;80.74;99490.44;3146220;28;20086;-78
2022/03/08 03:13:36;;;;;;;28.92;14.95;;;;;;;2.58;80.63;99516.81;3143110;28;20659;-77
2022/03/08 03:15:10;;;;;;;29.58;15.38;;;;;;;2.48;80.80;99504.13;3135761;28;20239;-77
2022/03/08 03:16:42;;;;;;;27.65;14.77;;;;;;;3.12;80.58;99597.28;3139171;28;20127;-77
2022/03/08 03:18:15;;;;;;;29.27;14.45;;;;;;;3.12;80.67;99594.72;3142683;28;20049;-75
2022/03/08 03:19:47;;;;;;;27.00;15.52;;;;;;;2.63;80.46;99512.44;3135622;28;20103;-75
2022/03/08 03:21:19;;;;;;;28.10;14.77;;;;;;;2.87;80.45;99553.16;3144607;28;20409;-75
2022/03/08 03:22:51;;;;;;;26.27;13.95;;;;;;;2.50;80.16;99493.81;3142920;28;20132;-75
2022/03/08 03:24:25;;;;;;;26.02;14.15;;;;;;;2.85;80.40;99547.19;3139249;28;20854;-76
2022/03/08 03:25:57;;;;;;;25.85;13.07;;;;;;;3.18;80.33;99604.91;3142124;28;20307;-75
2022/03/08 03:27:29;;;;;;;25.95;13.93;;;;;;;2.68;80.24;99520.91;3135756;28;20070;-76
2022/03/08 03:29:01;;;;;;;29.90;14.05;;;;;;;2.40;80.06;99469.16;3141181;28;20080;-75
2022/03/08 03:30:34;;;;;;;26.35;13.50;;;;;;;2.78;79.98;99537.03;3141072;28;20163;-76
2022/03/08 03:32:07;;;;;;;23.60;12.95;;;;;;;2.84;80.22;99557.50;3136305;28;20049;-75
2022/03/08 03:38:46;;;;;;;25.30;11.98;;;;;;;3.08;80.49;99602.53;3028581;29;20063;-78
2022/03/08 03:40:45;;;;;;;27.08;13.18;;;;;;;2.69;80.51;99531.19;3078007;28;20050;-76
2022/03/08 04:07:44;;;;;;;24.45;12.73;;;;;;;2.77;80.55;99558.47;2985141;29;20062;-78
2022/03/08 07:53:22;;;;;;;22.20;10.23;;;;;;;2.47;80.01;99601.81;3038210;29;20183;-71
2022/03/08 07:54:54;;;;;;;17.65;9.77;;;;;;;3.14;79.87;99701.03;3034102;29;20430;-73
2022/03/08 07:56:27;;;;;;;13.38;7.90;;;;;;;3.21;79.53;99698.38;3035229;29;20220;-74
2022/03/08 07:58:00;;;;;;;11.90;7.15;;;;;;;3.20;79.51;99684.66;3033975;29;20059;-74
2022/03/08 08:07:46;;;;;;;18.83;10.93;;;;;;;3.16;79.19;99649.53;3604377;23;20539;-78
2022/03/08 08:09:38;;;;;;;16.88;8.48;;;;;;;3.09;78.97;99614.50;3012989;29;20490;-75
2022/03/08 08:11:16;;;;;;;15.43;8.90;;;;;;;3.53;79.27;99674.63;3021877;29;20531;-77
2022/03/08 08:12:49;;;;;;;16.35;8.27;;;;;;;3.57;79.01;99679.69;3011087;29;20085;-73
2022/03/08 08:35:34;;;;;;;35.80;16.08;;;;;;;4.14;78.14;99670.84;3009804;29;20414;-77
2022/03/08 08:37:07;;;;;;;30.70;13.10;;;;;;;4.24;78.15;99672.34;3010707;29;20548;-70
2022/03/08 08:38:38;;;;;;;25.95;12.70;;;;;;;4.34;77.96;99673.00;3010723;29;20108;-70
2022/03/08 08:40:12;;;;;;;23.63;11.82;;;;;;;4.12;77.75;99610.75;3036823;29;20542;-69
2022/03/08 08:41:44;;;;;;;24.00;12.57;;;;;;;4.51;77.45;99668.31;3044714;29;20495;-69
2022/03/08 08:43:16;;;;;;;25.05;11.45;;;;;;;4.48;76.87;99652.91;3046788;29;20562;-69
2022/03/08 08:44:48;;;;;;;23.60;11.93;;;;;;;4.71;76.72;99674.75;3044708;29;20056;-70
2022/03/08 08:46:19;;;;;;;24.27;12.02;;;;;;;4.79;76.44;99676.28;3040761;29;20123;-70
2022/03/08 08:47:51;;;;;;;23.08;10.38;;;;;;;4.66;76.09;99635.31;3041044;29;20052;-73
2022/03/08 08:49:27;;;;;;;20.88;10.38;;;;;;;4.96;75.78;99667.25;3043188;29;20057;-75
2022/03/08 08:51:00;;;;;;;18.42;9.70;;;;;;;4.75;75.63;99620.47;3039749;29;20084;-75
2022/03/08 08:52:32;;;;;;;20.35;10.15;;;;;;;5.09;75.29;99663.50;3042215;29;20062;-74
2022/03/08 08:54:05;;;;;;;20.48;9.80;;;;;;;5.13;74.79;99678.03;3041011;29;20107;-73
2022/03/08 08:55:37;;;;;;;21.83;10.10;;;;;;;5.08;74.37;99672.13;3040629;29;20060;-69
2022/03/08 08:57:09;;;;;;;22.95;10.52;;;;;;;5.13;74.30;99678.03;3039788;29;20060;-71
2022/03/08 08:58:41;;;;;;;21.50;10.73;;;;;;;4.78;74.22;99615.22;3039558;29;20165;-75
2022/03/08 09:00:28;;;;;;;22.40;11.75;;;;;;;4.46;73.91;99563.56;3041530;29;20124;-77
2022/03/08 09:02:01;;;;;;;24.70;12.15;;;;;;;4.64;74.22;99590.66;3041667;29;20071;-76
2022/03/08 09:03:55;;;;;;;22.02;11.07;;;;;;;4.57;74.01;99570.16;3043017;29;20056;-76
2022/03/08 09:05:33;;;;;;;21.63;10.95;;;;;;;4.79;73.88;99610.91;3035310;29;20084;-76
2022/03/08 09:07:32;;;;;;;22.20;9.80;;;;;;;4.27;73.94;99530.50;3040288;29;20151;-77
2022/03/08 09:10:00;;;;;;;20.52;10.32;;;;;;;5.21;73.29;99681.28;3046525;29;20131;-80
2022/03/08 09:12:37;;;;;;;22.63;10.93;;;;;;;5.05;73.33;99676.53;3040809;29;20088;-78
2022/03/08 09:14:37;;;;;;;19.67;10.93;;;;;;;4.22;73.49;99552.97;3043073;29;20071;-77
2022/03/08 09:16:29;;;;;;;20.80;10.80;;;;;;;4.68;73.35;99613.75;3010744;29;20687;-78
2022/03/08 09:18:29;;;;;;;20.67;10.48;;;;;;;4.75;73.44;99637.66;3042443;29;20139;-77
2022/03/08 09:20:01;;;;;;;27.45;12.88;;;;;;;4.65;73.44;99616.41;3044691;29;20518;-76
2022/03/08 09:21:38;;;;;;;53.55;18.90;;;;;;;4.72;73.44;99624.84;3042965;29;20103;-76
2022/03/08 09:23:24;;;;;;;37.25;15.10;;;;;;;5.07;73.61;99675.59;3041034;29;20061;-76
2022/03/08 09:25:02;;;;;;;20.15;10.02;;;;;;;4.81;73.67;99642.69;3041909;29;20476;-77
2022/03/08 09:26:56;;;;;;;24.30;10.98;;;;;;;4.61;73.14;99609.63;3043651;29;20083;-77
2022/03/08 09:29:10;;;;;;;22.23;10.85;;;;;;;5.00;72.95;99677.50;3042721;29;20091;-79
2022/03/08 09:30:51;;;;;;;26.80;11.53;;;;;;;4.76;73.16;99644.50;3021541;29;20107;-77
2022/03/08 09:32:40;;;;;;;37.80;18.10;;;;;;;4.60;73.07;99620.84;3042466;29;20312;-77
2022/03/08 09:36:36;;;;;;;26.45;13.02;;;;;;;4.82;73.40;99648.69;3035969;29;20557;-79
2022/03/08 09:43:15;;;;;;;22.95;11.98;;;;;;;4.70;73.32;99642.97;3029686;29;20061;-79
2022/03/08 09:44:48;;;;;;;21.23;10.68;;;;;;;4.95;73.39;99684.47;3030693;29;20049;-77
2022/03/08 09:46:24;;;;;;;19.77;10.05;;;;;;;4.58;72.83;99630.31;3029291;29;20822;-76
2022/03/08 09:47:56;;;;;;;20.38;10.52;;;;;;;4.94;72.67;99684.50;3030321;29;20052;-76
2022/03/08 09:49:28;;;;;;;30.90;11.95;;;;;;;4.81;72.45;99667.63;3032853;29;20116;-76
2022/03/08 09:51:01;;;;;;;29.83;12.68;;;;;;;4.78;72.37;99669.41;3032786;29;20138;-76
2022/03/08 09:52:36;;;;;;;18.63;9.80;;;;;;;4.86;72.12;99697.63;3029890;29;20101;-69
2022/03/08 09:54:08;;;;;;;18.85;9.45;;;;;;;4.84;71.98;99693.38;3030522;29;20108;-69
2022/03/08 09:55:41;;;;;;;97.63;47.75;;;;;;;4.42;71.79;99623.84;3027313;29;20750;-69
2022/03/08 09:57:18;;;;;;;26.52;13.25;;;;;;;4.82;71.79;99692.53;3033745;29;20108;-74
2022/03/08 10:09:11;;;;;;;26.83;12.75;;;;;;;4.63;72.69;99692.97;2950188;29;20046;-75
2022/03/08 10:10:49;;;;;;;21.83;11.07;;;;;;;4.18;72.64;99618.34;3001373;29;20085;-70
2022/03/08 10:12:22;;;;;;;28.20;12.35;;;;;;;4.65;72.74;99692.97;3008048;29;20108;-72
2022/03/08 10:13:55;;;;;;;23.55;11.18;;;;;;;4.29;72.72;99641.31;3029711;29;20120;-76
2022/03/08 10:15:27;;;;;;;19.90;10.80;;;;;;;4.01;72.70;99592.94;3031336;29;20045;-75
2022/03/08 10:16:59;;;;;;;23.25;11.65;;;;;;;4.56;72.44;99679.38;3036036;29;20399;-73
2022/03/08 10:18:35;;;;;;;19.83;10.30;;;;;;;4.63;72.36;99690.41;3036823;29;20112;-72
2022/03/08 10:20:09;;;;;;;22.35;11.13;;;;;;;4.68;72.28;99691.16;3035358;29;20100;-71
2022/03/08 10:21:43;;;;;;;25.48;12.20;;;;;;;4.67;72.34;99693.75;3036702;29;20541;-72
2022/03/08 10:23:15;;;;;;;28.10;13.00;;;;;;;4.62;72.40;99685.28;3037092;29;20063;-70
2022/03/08 10:24:54;;;;;;;24.90;12.25;;;;;;;4.30;72.56;99630.13;3036208;29;20052;-71
2022/03/08 10:26:26;;;;;;;20.55;10.40;;;;;;;4.65;72.59;99686.06;3033543;29;20080;-72
2022/03/08 10:28:06;;;;;;;21.48;11.18;;;;;;;4.52;72.30;99659.69;3035210;29;20072;-74
2022/03/08 10:29:40;;;;;;;22.08;11.13;;;;;;;4.71;72.30;99700.56;3032231;29;20510;-74
2022/03/08 10:31:16;;;;;;;21.52;10.98;;;;;;;4.74;72.27;99697.91;3028810;29;20044;-73
2022/03/08 10:32:49;;;;;;;23.45;11.32;;;;;;;4.76;71.99;99703.84;3035559;29;20127;-73
2022/03/08 10:34:21;;;;;;;18.33;9.27;;;;;;;4.76;72.11;99702.16;3033891;29;20136;-69
2022/03/08 10:35:54;;;;;;;17.13;8.68;;;;;;;4.50;72.35;99658.03;3036939;29;20097;-74
2022/03/08 10:37:27;;;;;;;18.17;10.60;;;;;;;4.50;72.13;99655.47;3034559;29;20079;-73
2022/03/08 10:39:08;;;;;;;16.17;9.50;;;;;;;4.75;72.17;99687.53;3029979;29;20329;-73
2022/03/08 10:40:41;;;;;;;20.13;10.18;;;;;;;4.55;72.35;99646.75;3028982;29;20142;-73
2022/03/08 10:42:20;;;;;;;19.48;10.35;;;;;;;4.54;72.00;99639.88;3032009;29;20086;-74
2022/03/08 10:43:53;;;;;;;18.25;9.40;;;;;;;4.60;71.83;99643.19;3029894;29;20053;-73
2022/03/08 10:45:28;;;;;;;22.40;11.27;;;;;;;4.61;71.86;99632.81;3031870;29;20695;-73
2022/03/08 10:47:01;;;;;;;19.75;10.27;;;;;;;5.05;71.61;99694.59;3030467;29;20048;-73
2022/03/08 10:48:36;;;;;;;14.27;8.25;;;;;;;5.04;71.60;99687.75;3032974;29;20055;-73
2022/03/08 10:50:10;;;;;;;16.08;8.90;;;;;;;4.90;71.38;99651.94;3032856;29;20105;-73
2022/03/08 10:51:44;;;;;;;19.58;9.63;;;;;;;5.27;71.01;99700.09;3033555;29;20080;-73
2022/03/08 10:53:16;;;;;;;20.05;10.07;;;;;;;5.34;70.83;99704.19;3034571;29;20441;-73
2022/03/08 10:54:48;;;;;;;15.90;8.80;;;;;;;5.33;70.84;99693.03;3029658;29;20049;-74
2022/03/08 10:56:24;;;;;;;21.33;9.90;;;;;;;5.18;70.50;99649.53;3035324;29;20495;-73
2022/03/08 10:57:58;;;;;;;18.38;9.32;;;;;;;5.47;70.10;99685.78;3033410;29;20052;-73
2022/03/08 10:59:31;;;;;;;18.67;11.38;;;;;;;5.21;70.05;99637.38;3032766;29;20487;-72
2022/03/08 11:01:11;;;;;;;17.90;10.10;;;;;;;5.05;69.85;99596.50;3028769;29;20144;-73
2022/03/08 11:02:53;;;;;;;18.63;10.20;;;;;;;5.66;69.62;99688.69;3028664;29;20052;-73
2022/03/08 11:04:25;;;;;;;19.17;8.15;;;;;;;5.53;69.32;99669.28;3029860;29;20489;-72
2022/03/08 11:06:04;;;;;;;16.10;9.45;;;;;;;5.80;69.09;99708.16;3034688;29;20048;-73
2022/03/08 11:07:37;;;;;;;18.65;9.45;;;;;;;5.46;68.98;99639.31;3029737;29;20140;-73
2022/03/08 11:09:09;;;;;;;15.02;8.18;;;;;;;5.85;68.81;99706.28;3035399;29;20048;-73
2022/03/08 11:10:42;;;;;;;17.95;9.45;;;;;;;5.45;68.43;99637.63;3034516;29;20056;-73
2022/03/08 11:12:14;;;;;;;19.48;11.55;;;;;;;5.85;68.46;99703.69;3036240;29;20060;-72
2022/03/08 11:13:50;;;;;;;17.77;9.88;;;;;;;5.54;68.45;99644.28;3036074;29;20107;-73
2022/03/08 11:15:25;;;;;;;20.95;10.77;;;;;;;5.47;68.61;99631.53;3035731;29;20055;-73
2022/03/08 11:16:58;;;;;;;20.77;11.55;;;;;;;5.74;68.51;99685.94;3034775;29;20045;-72
2022/03/08 11:18:31;;;;;;;18.92;10.63;;;;;;;5.50;68.50;99633.16;3033825;29;20105;-73
2022/03/08 11:20:05;;;;;;;18.65;9.45;;;;;;;5.82;68.56;99683.13;3036713;29;20144;-73
2022/03/08 11:21:37;;;;;;;17.33;9.40;;;;;;;5.64;68.39;99656.88;3034070;29;20052;-72
2022/03/08 11:23:10;;;;;;;16.58;9.68;;;;;;;5.82;68.15;99681.38;3033183;29;20151;-73
2022/03/08 11:24:43;;;;;;;17.27;9.97;;;;;;;5.54;68.05;99633.94;3035093;29;20521;-72
2022/03/08 11:26:16;;;;;;;21.20;11.45;;;;;;;5.24;68.10;99575.34;3035148;29;20049;-72
2022/03/08 11:27:49;;;;;;;22.02;11.50;;;;;;;5.89;68.22;99685.50;3034699;29;20527;-73
2022/03/08 11:29:21;;;;;;;21.85;11.05;;;;;;;5.66;68.25;99636.19;3035571;29;20510;-73
2022/03/08 11:30:57;;;;;;;20.42;10.02;;;;;;;5.34;67.80;99575.09;3032677;29;20067;-72
2022/03/08 11:32:36;;;;;;;17.00;9.32;;;;;;;6.01;67.88;99674.00;3036083;29;20048;-72
2022/03/08 11:34:18;;;;;;;16.70;9.20;;;;;;;5.68;67.54;99624.94;3035951;29;20059;-72
2022/03/08 11:35:54;;;;;;;14.18;8.30;;;;;;;5.66;67.42;99612.94;3033287;29;20131;-74
2022/03/08 11:37:29;;;;;;;18.73;9.32;;;;;;;5.68;67.12;99612.00;3035000;29;20052;-73
2022/03/08 11:39:28;;;;;;;16.95;9.07;;;;;;;5.99;67.18;99651.66;3031561;29;20053;-72
2022/03/08 11:41:01;;;;;;;18.95;9.38;;;;;;;6.12;67.39;99664.19;3002359;29;20065;-73
2022/03/08 11:42:34;;;;;;;15.43;8.52;;;;;;;5.87;67.26;99617.50;3034017;29;20082;-73
2022/03/08 11:44:07;;;;;;;16.40;8.88;;;;;;;5.98;67.31;99617.22;3033692;29;20052;-72
2022/03/08 11:45:39;;;;;;;17.58;9.18;;;;;;;6.03;66.87;99617.91;3034463;29;20060;-73
2022/03/08 11:47:14;;;;;;;16.17;9.13;;;;;;;6.45;66.63;99664.09;3030474;29;20082;-73
2022/03/08 11:48:55;;;;;;;17.90;9.88;;;;;;;6.53;66.47;99654.31;3036072;29;20553;-73
2022/03/08 11:50:28;;;;;;;20.10;10.63;;;;;;;6.31;66.37;99612.78;3035022;29;20048;-73
2022/03/08 11:52:12;;;;;;;19.67;10.32;;;;;;;6.22;65.81;99576.84;3034189;29;20063;-73
2022/03/08 11:53:47;;;;;;;28.60;12.73;;;;;;;6.46;66.26;99601.09;3033844;29;20076;-73
2022/03/08 11:55:25;;;;;;;25.25;12.02;;;;;;;6.49;65.34;99595.00;3029770;29;20132;-73
2022/03/08 11:56:57;;;;;;;13.60;7.75;;;;;;;6.91;64.95;99654.03;3035576;29;20419;-72
2022/03/08 11:58:43;;;;;;;25.08;12.18;;;;;;;6.65;64.11;99600.50;3035894;29;20044;-73
2022/03/08 12:00:19;;;;;;;14.50;8.18;;;;;;;6.86;64.07;99633.44;3030921;29;20115;-73
2022/03/08 12:01:55;;;;;;;15.85;9.00;;;;;;;6.91;63.92;99639.34;3035430;29;20076;-73
2022/03/08 12:03:41;;;;;;;15.88;9.82;;;;;;;6.63;63.68;99589.38;3035178;29;20055;-73
2022/03/08 12:05:47;;;;;;;19.98;10.45;;;;;;;6.70;63.53;99603.81;3035651;29;20060;-71
2022/03/08 12:07:27;;;;;;;14.90;9.15;;;;;;;6.88;63.81;99633.41;3034965;29;20045;-74
2022/03/08 12:09:10;;;;;;;15.02;8.65;;;;;;;7.01;63.64;99653.69;3034496;29;20131;-73
2022/03/08 12:10:44;;;;;;;16.13;9.32;;;;;;;6.71;63.55;99595.97;3033878;29;20077;-73
2022/03/08 12:12:20;;;;;;;15.07;9.38;;;;;;;7.14;63.53;99655.88;3036055;29;20068;-73
2022/03/08 12:14:01;;;;;;;17.48;9.15;;;;;;;7.18;63.54;99642.75;3035895;29;20056;-74
2022/03/08 12:15:32;;;;;;;19.40;10.77;;;;;;;6.90;63.53;99593.63;3035667;29;20052;-73
2022/03/08 12:17:10;;;;;;;28.02;11.70;;;;;;;7.35;63.61;99642.19;3035670;29;20141;-73
2022/03/08 12:18:51;;;;;;;22.35;12.18;;;;;;;7.29;63.12;99630.28;3036162;29;20058;-74
2022/03/08 12:20:23;;;;;;;16.25;9.82;;;;;;;7.22;62.99;99612.44;3037415;29;20510;-74
2022/03/08 12:21:56;;;;;;;18.00;9.55;;;;;;;7.25;62.92;99605.41;3036198;29;20044;-73
2022/03/08 12:23:47;;;;;;;;;;;;;;;7.43;63.38;99647.94;3034957;29;20052;-74
2022/03/08 12:25:19;;;;;;;15.73;8.55;;;;;;;7.11;62.68;99591.22;3036719;29;19931;-73
2022/03/08 12:26:58;;;;;;;15.82;8.32;;;;;;;7.27;62.03;99594.97;3036576;29;20522;-73
2022/03/08 12:29:02;;;;;;;10.65;7.03;;;;;;;7.20;61.39;99575.38;3036713;29;20124;-73
2022/03/08 12:30:46;;;;;;;17.00;10.23;;;;;;;7.51;61.00;99613.97;3038292;29;20060;-74
2022/03/08 12:32:39;;;;;;;12.82;7.95;;;;;;;7.20;61.07;99562.41;3034665;29;20176;-74
2022/03/08 12:34:13;;;;;;;21.58;14.82;;;;;;;7.22;60.68;99556.28;3036520;29;20074;-73
2022/03/08 12:35:54;;;;;;;23.67;13.07;;;;;;;7.35;60.47;99561.03;3035475;29;20056;-73
2022/03/08 12:37:27;;;;;;;16.17;9.30;;;;;;;7.32;60.36;99567.16;3036115;29;20061;-74
2022/03/08 12:38:59;;;;;;;16.88;9.13;;;;;;;7.42;59.98;99584.06;3036227;29;20045;-72
2022/03/08 12:40:34;;;;;;;17.52;9.10;;;;;;;7.49;59.57;99611.44;3034368;29;20111;-73
2022/03/08 12:42:06;;;;;;;22.33;11.55;;;;;;;7.15;59.97;99556.53;3036889;29;20054;-73
2022/03/08 12:43:38;;;;;;;16.52;9.90;;;;;;;7.63;59.80;99642.06;3031811;29;20056;-73